<?xml version="1.0" encoding="UTF-8" standalone="no" ?>
<gpx xmlns="http://www.topografix.com/GPX/1/1" xmlns:xsi="http://www.w3.org/2001/XMLSchema-instance" xsi:schemaLocation="http://www.topografix.com/GPX/1/1 http://www.topografix.com/GPX/1/1/gpx.xsd" version="1.1" creator="VisuGPX - https://www.visugpx.com">
  <metadata>
    <name>St Sorlin-Bramefan</name>
  </metadata>
  <trk>
    <name><![CDATA[St Sorlin-Bramefan]]></name>
    <trkseg>
      <trkpt lat="45.88391" lon="5.3718">
        <ele>204</ele>
        <time>2020-09-05T16:29:40Z</time>
      </trkpt>
      <trkpt lat="45.88356" lon="5.37206">
        <ele>205</ele>
        <time>2020-09-05T16:30:33Z</time>
      </trkpt>
      <trkpt lat="45.88394" lon="5.37339">
        <ele>229</ele>
        <time>2020-09-05T16:32:46Z</time>
      </trkpt>
      <trkpt lat="45.88382" lon="5.37686">
        <ele>276</ele>
        <time>2020-09-05T16:38:09Z</time>
      </trkpt>
      <trkpt lat="45.88382" lon="5.37841">
        <ele>318</ele>
        <time>2020-09-05T16:40:33Z</time>
      </trkpt>
      <trkpt lat="45.88236" lon="5.37879">
        <ele>310</ele>
        <time>2020-09-05T16:43:51Z</time>
      </trkpt>
      <trkpt lat="45.88185" lon="5.37987">
        <ele>326</ele>
        <time>2020-09-05T16:45:52Z</time>
      </trkpt>
      <trkpt lat="45.88305" lon="5.38017">
        <ele>359</ele>
        <time>2020-09-05T16:48:35Z</time>
      </trkpt>
      <trkpt lat="45.88299" lon="5.38266">
        <ele>399</ele>
        <time>2020-09-05T16:52:26Z</time>
      </trkpt>
      <trkpt lat="45.8849" lon="5.38146">
        <ele>426</ele>
        <time>2020-09-05T16:57:04Z</time>
      </trkpt>
      <trkpt lat="45.88636" lon="5.38244">
        <ele>441</ele>
        <time>2020-09-05T17:00:39Z</time>
      </trkpt>
      <trkpt lat="45.88747" lon="5.38309">
        <ele>458</ele>
        <time>2020-09-05T17:03:19Z</time>
      </trkpt>
      <trkpt lat="45.88798" lon="5.38038">
        <ele>453</ele>
        <time>2020-09-05T17:07:40Z</time>
      </trkpt>
      <trkpt lat="45.88953" lon="5.37978">
        <ele>472</ele>
        <time>2020-09-05T17:11:14Z</time>
      </trkpt>
      <trkpt lat="45.89013" lon="5.37905">
        <ele>489</ele>
        <time>2020-09-05T17:12:59Z</time>
      </trkpt>
      <trkpt lat="45.89108" lon="5.37978">
        <ele>538</ele>
        <time>2020-09-05T17:15:23Z</time>
      </trkpt>
      <trkpt lat="45.89099" lon="5.3791">
        <ele>533</ele>
        <time>2020-09-05T17:16:27Z</time>
      </trkpt>
      <trkpt lat="45.89234" lon="5.37558">
        <ele>556</ele>
        <time>2020-09-05T17:22:41Z</time>
      </trkpt>
      <trkpt lat="45.89255" lon="5.37309">
        <ele>554</ele>
        <time>2020-09-05T17:26:34Z</time>
      </trkpt>
      <trkpt lat="45.89449" lon="5.37163">
        <ele>577</ele>
        <time>2020-09-05T17:31:26Z</time>
      </trkpt>
      <trkpt lat="45.89601" lon="5.37055">
        <ele>577</ele>
        <time>2020-09-05T17:35:12Z</time>
      </trkpt>
      <trkpt lat="45.89798" lon="5.37094">
        <ele>575</ele>
        <time>2020-09-05T17:39:37Z</time>
      </trkpt>
      <trkpt lat="45.89963" lon="5.37146">
        <ele>565</ele>
        <time>2020-09-05T17:43:23Z</time>
      </trkpt>
      <trkpt lat="45.90046" lon="5.37051">
        <ele>565</ele>
        <time>2020-09-05T17:45:44Z</time>
      </trkpt>
      <trkpt lat="45.89906" lon="5.36785">
        <ele>582</ele>
        <time>2020-09-05T17:50:54Z</time>
      </trkpt>
      <trkpt lat="45.90098" lon="5.37021">
        <ele>562</ele>
        <time>2020-09-05T16:30:00Z</time>
      </trkpt>
      <trkpt lat="45.90172" lon="5.37019">
        <ele>566</ele>
        <time>2020-09-05T16:31:39Z</time>
      </trkpt>
      <trkpt lat="45.90236" lon="5.37092">
        <ele>580</ele>
        <time>2020-09-05T16:33:28Z</time>
      </trkpt>
      <trkpt lat="45.90312" lon="5.37113">
        <ele>589</ele>
        <time>2020-09-05T16:35:11Z</time>
      </trkpt>
      <trkpt lat="45.90331" lon="5.37066">
        <ele>590</ele>
        <time>2020-09-05T16:36:02Z</time>
      </trkpt>
      <trkpt lat="45.90412" lon="5.36993">
        <ele>591</ele>
        <time>2020-09-05T16:38:09Z</time>
      </trkpt>
      <trkpt lat="45.90503" lon="5.36989">
        <ele>592</ele>
        <time>2020-09-05T16:40:11Z</time>
      </trkpt>
      <trkpt lat="45.90672" lon="5.36843">
        <ele>590</ele>
        <time>2020-09-05T16:44:34Z</time>
      </trkpt>
      <trkpt lat="45.91032" lon="5.36822">
        <ele>568</ele>
        <time>2020-09-05T16:52:35Z</time>
      </trkpt>
      <trkpt lat="45.91054" lon="5.36708">
        <ele>558</ele>
        <time>2020-09-05T16:54:24Z</time>
      </trkpt>
      <trkpt lat="45.91136" lon="5.36628">
        <ele>547</ele>
        <time>2020-09-05T16:56:37Z</time>
      </trkpt>
      <trkpt lat="45.91278" lon="5.36553">
        <ele>526</ele>
        <time>2020-09-05T16:59:59Z</time>
      </trkpt>
      <trkpt lat="45.91483" lon="5.3636">
        <ele>515</ele>
        <time>2020-09-05T17:05:26Z</time>
      </trkpt>
      <trkpt lat="45.91609" lon="5.36083">
        <ele>523</ele>
        <time>2020-09-05T17:10:33Z</time>
      </trkpt>
      <trkpt lat="45.91745" lon="5.35989">
        <ele>505</ele>
        <time>2020-09-05T17:13:54Z</time>
      </trkpt>
      <trkpt lat="45.91751" lon="5.35927">
        <ele>503</ele>
        <time>2020-09-05T17:14:52Z</time>
      </trkpt>
      <trkpt lat="45.91718" lon="5.3588">
        <ele>498</ele>
        <time>2020-09-05T17:15:54Z</time>
      </trkpt>
      <trkpt lat="45.91459" lon="5.35884">
        <ele>478</ele>
        <time>2020-09-05T17:21:40Z</time>
      </trkpt>
      <trkpt lat="45.914" lon="5.35983">
        <ele>470</ele>
        <time>2020-09-05T17:23:41Z</time>
      </trkpt>
      <trkpt lat="45.91251" lon="5.3609">
        <ele>448</ele>
        <time>2020-09-05T17:27:23Z</time>
      </trkpt>
      <trkpt lat="45.91248" lon="5.36002">
        <ele>429</ele>
        <time>2020-09-05T17:28:45Z</time>
      </trkpt>
      <trkpt lat="45.91215" lon="5.35888">
        <ele>396</ele>
        <time>2020-09-05T17:30:40Z</time>
      </trkpt>
      <trkpt lat="45.91265" lon="5.35862">
        <ele>393</ele>
        <time>2020-09-05T17:31:51Z</time>
      </trkpt>
      <trkpt lat="45.91299" lon="5.35652">
        <ele>361</ele>
        <time>2020-09-05T17:35:11Z</time>
      </trkpt>
      <trkpt lat="45.91297" lon="5.35536">
        <ele>338</ele>
        <time>2020-09-05T17:36:59Z</time>
      </trkpt>
      <trkpt lat="45.91099" lon="5.35646">
        <ele>339</ele>
        <time>2020-09-05T17:41:42Z</time>
      </trkpt>
      <trkpt lat="45.9097" lon="5.35753">
        <ele>341</ele>
        <time>2020-09-05T17:45:01Z</time>
      </trkpt>
      <trkpt lat="45.90896" lon="5.35899">
        <ele>358</ele>
        <time>2020-09-05T17:47:48Z</time>
      </trkpt>
      <trkpt lat="45.90855" lon="5.35762">
        <ele>336</ele>
        <time>2020-09-05T17:50:07Z</time>
      </trkpt>
      <trkpt lat="45.90857" lon="5.35635">
        <ele>319</ele>
        <time>2020-09-05T17:52:05Z</time>
      </trkpt>
      <trkpt lat="45.90915" lon="5.35596">
        <ele>311</ele>
        <time>2020-09-05T17:53:30Z</time>
      </trkpt>
      <trkpt lat="45.90866" lon="5.35521">
        <ele>300</ele>
        <time>2020-09-05T17:55:06Z</time>
      </trkpt>
      <trkpt lat="45.90781" lon="5.35528">
        <ele>301</ele>
        <time>2020-09-05T17:56:59Z</time>
      </trkpt>
      <trkpt lat="45.90766" lon="5.35504">
        <ele>294</ele>
        <time>2020-09-05T17:57:29Z</time>
      </trkpt>
      <trkpt lat="45.9072" lon="5.35472">
        <ele>285</ele>
        <time>2020-09-05T17:58:38Z</time>
      </trkpt>
      <trkpt lat="45.90503" lon="5.35474">
        <ele>265</ele>
        <time>2020-09-05T18:03:27Z</time>
      </trkpt>
      <trkpt lat="45.90366" lon="5.35511">
        <ele>247</ele>
        <time>2020-09-05T18:06:33Z</time>
      </trkpt>
      <trkpt lat="45.90336" lon="5.35609">
        <ele>261</ele>
        <time>2020-09-05T18:08:13Z</time>
      </trkpt>
      <trkpt lat="45.90269" lon="5.35663">
        <ele>266</ele>
        <time>2020-09-05T18:09:55Z</time>
      </trkpt>
      <trkpt lat="45.90251" lon="5.35805">
        <ele>283</ele>
        <time>2020-09-05T18:12:09Z</time>
      </trkpt>
      <trkpt lat="45.9029" lon="5.35983">
        <ele>313</ele>
        <time>2020-09-05T18:15:02Z</time>
      </trkpt>
      <trkpt lat="45.90134" lon="5.36193">
        <ele>354</ele>
        <time>2020-09-05T18:19:48Z</time>
      </trkpt>
      <trkpt lat="45.90085" lon="5.36236">
        <ele>366</ele>
        <time>2020-09-05T18:21:04Z</time>
      </trkpt>
      <trkpt lat="45.9001" lon="5.36251">
        <ele>366</ele>
        <time>2020-09-05T18:25:35Z</time>
      </trkpt>
      <trkpt lat="45.89963" lon="5.36204">
        <ele>352</ele>
        <time>2020-09-05T18:26:52Z</time>
      </trkpt>
      <trkpt lat="45.89895" lon="5.3627">
        <ele>355</ele>
        <time>2020-09-05T18:28:41Z</time>
      </trkpt>
      <trkpt lat="45.89713" lon="5.36326">
        <ele>351</ele>
        <time>2020-09-05T18:32:50Z</time>
      </trkpt>
      <trkpt lat="45.89624" lon="5.36335">
        <ele>350</ele>
        <time>2020-09-05T18:34:49Z</time>
      </trkpt>
      <trkpt lat="45.89579" lon="5.36322">
        <ele>344</ele>
        <time>2020-09-05T18:35:50Z</time>
      </trkpt>
      <trkpt lat="45.89297" lon="5.36564">
        <ele>313</ele>
        <time>2020-09-05T18:43:08Z</time>
      </trkpt>
      <trkpt lat="45.89267" lon="5.36603">
        <ele>308</ele>
        <time>2020-09-05T18:44:02Z</time>
      </trkpt>
      <trkpt lat="45.89231" lon="5.36618">
        <ele>297</ele>
        <time>2020-09-05T18:44:52Z</time>
      </trkpt>
      <trkpt lat="45.89162" lon="5.36719">
        <ele>293</ele>
        <time>2020-09-05T18:47:04Z</time>
      </trkpt>
      <trkpt lat="45.89153" lon="5.36796">
        <ele>301</ele>
        <time>2020-09-05T18:48:16Z</time>
      </trkpt>
      <trkpt lat="45.88978" lon="5.36987">
        <ele>273</ele>
        <time>2020-09-05T18:53:10Z</time>
      </trkpt>
      <trkpt lat="45.89078" lon="5.36712">
        <ele>260</ele>
        <time>2020-09-05T18:57:58Z</time>
      </trkpt>
      <trkpt lat="45.89053" lon="5.36699">
        <ele>251</ele>
        <time>2020-09-05T18:58:33Z</time>
      </trkpt>
      <trkpt lat="45.89017" lon="5.36729">
        <ele>242</ele>
        <time>2020-09-05T18:59:29Z</time>
      </trkpt>
      <trkpt lat="45.88983" lon="5.36819">
        <ele>238</ele>
        <time>2020-09-05T19:01:04Z</time>
      </trkpt>
      <trkpt lat="45.88881" lon="5.36914">
        <ele>222</ele>
        <time>2020-09-05T19:03:46Z</time>
      </trkpt>
      <trkpt lat="45.88841" lon="5.36897">
        <ele>213</ele>
        <time>2020-09-05T19:04:42Z</time>
      </trkpt>
      <trkpt lat="45.88693" lon="5.36978">
        <ele>210</ele>
        <time>2020-09-05T19:08:13Z</time>
      </trkpt>
      <trkpt lat="45.88497" lon="5.37128">
        <ele>205</ele>
        <time>2020-09-05T19:13:09Z</time>
      </trkpt>
    </trkseg>
  </trk>
</gpx>